Time;durP1;ratioP1;P1;durP2;ratioP2;P2;SDS_P1;SDS_P2;PMS_P1;PMS_P2;Temp;Humidity;BMP_temperature;BMP_pressure;BME280_temperature;BME280_humidity;BME280_pressure;Samples;Min_cycle;Max_cycle;Signal;HPM_P1;HPM_P2
2021/01/08 00:00:14;;;;;;;3.90;1.55;;;;;;;26.02;30.19;96193.72;5040248;28;20036;-43
2021/01/08 00:02:39;;;;;;;2.17;1.45;;;;;;;26.00;30.14;96195.59;5040608;28;20048;-43
2021/01/08 00:05:05;;;;;;;13.65;2.40;;;;;;;25.94;29.34;96193.38;5023141;28;20112;-43
2021/01/08 00:07:34;;;;;;;4.00;1.42;;;;;;;25.97;29.63;96195.78;5050139;28;20041;-42
2021/01/08 00:10:00;;;;;;;2.65;1.50;;;;;;;25.97;29.88;96201.03;5043865;28;20036;-43
2021/01/08 00:12:29;;;;;;;4.57;1.80;;;;;;;25.97;30.15;96195.78;5038618;28;20510;-42
2021/01/08 00:14:55;;;;;;;5.32;1.33;;;;;;;25.96;30.05;96189.72;5041319;28;20037;-38
2021/01/08 00:17:21;;;;;;;4.97;1.50;;;;;;;25.93;30.20;96189.06;5040986;28;20037;-42
2021/01/08 00:19:46;;;;;;;3.03;1.25;;;;;;;25.93;30.33;96189.06;5039624;28;20041;-42
2021/01/08 00:22:12;;;;;;;3.30;1.35;;;;;;;25.94;30.20;96196.81;5045104;28;20556;-42
2021/01/08 00:24:42;;;;;;;3.80;1.45;;;;;;;25.93;30.11;96191.69;5044135;28;20032;-43
2021/01/08 00:27:07;;;;;;;1.92;1.42;;;;;;;25.89;30.24;96188.41;5022909;28;20036;-42
2021/01/08 00:29:33;;;;;;;3.88;1.38;;;;;;;25.91;30.25;96193.56;5043494;28;20039;-38
2021/01/08 00:31:58;;;;;;;3.15;1.50;;;;;;;25.91;30.27;96190.94;5034786;28;20460;-37
2021/01/08 00:34:24;;;;;;;4.13;1.55;;;;;;;25.95;30.24;96197.66;5039139;28;20052;-37
2021/01/08 00:36:53;;;;;;;2.40;1.48;;;;;;;25.99;30.07;96196.53;5036175;28;20044;-43
2021/01/08 00:39:19;;;;;;;1.98;1.30;;;;;;;26.04;30.08;96191.84;5033727;28;20037;-41
2021/01/08 00:41:45;;;;;;;3.35;1.40;;;;;;;26.01;30.04;96199.91;5043076;28;20044;-40
2021/01/08 00:44:11;;;;;;;2.65;1.17;;;;;;;26.00;30.19;96200.84;5039870;28;20102;-46
2021/01/08 00:46:38;;;;;;;2.22;1.00;;;;;;;26.00;30.08;96190.34;5032279;28;20044;-43
2021/01/08 00:49:04;;;;;;;1.98;1.30;;;;;;;25.97;30.20;96195.78;5038684;28;20049;-42
2021/01/08 00:51:29;;;;;;;1.90;1.50;;;;;;;25.99;30.40;96199.16;5037752;28;20048;-43
2021/01/08 00:53:55;;;;;;;4.55;1.10;;;;;;;25.96;30.33;96191.47;5036787;28;20668;-37
2021/01/08 00:56:21;;;;;;;1.75;1.23;;;;;;;25.97;30.24;96195.78;5037903;28;20037;-41
2021/01/08 00:58:46;;;;;;;2.58;1.30;;;;;;;25.98;30.34;96196.63;5037227;28;20055;-44
2021/01/08 01:01:13;;;;;;;1.33;1.23;;;;;;;26.00;30.14;96194.78;5033612;28;20474;-40
2021/01/08 01:03:38;;;;;;;1.58;1.20;;;;;;;25.97;30.28;96193.16;5033426;28;20075;-40
2021/01/08 01:06:04;;;;;;;1.40;1.30;;;;;;;25.99;30.30;96193.91;5041457;28;20490;-42
2021/01/08 01:08:30;;;;;;;2.00;1.13;;;;;;;26.00;30.13;96200.84;5043708;28;20665;-42
2021/01/08 01:10:55;;;;;;;2.00;0.90;;;;;;;26.02;29.96;96200.75;5040346;28;20048;-42
2021/01/08 01:13:20;;;;;;;1.63;1.10;;;;;;;25.96;30.24;96194.09;5025027;28;20047;-41
2021/01/08 01:15:46;;;;;;;2.83;1.30;;;;;;;25.95;30.30;96202.91;5035389;28;20514;-41
2021/01/08 01:18:11;;;;;;;1.23;0.95;;;;;;;25.93;30.17;96189.06;5041618;28;20030;-38
2021/01/08 01:20:37;;;;;;;2.53;1.00;;;;;;;25.93;30.12;96194.31;5039352;28;20045;-43
2021/01/08 01:23:03;;;;;;;2.00;1.10;;;;;;;25.96;30.32;96199.34;5041730;28;20094;-42
2021/01/08 01:25:29;;;;;;;1.90;1.15;;;;;;;26.00;30.17;96206.09;5033431;28;20040;-44
2021/01/08 01:27:54;;;;;;;2.03;1.23;;;;;;;25.96;30.24;96200.19;5034786;28;20414;-43
2021/01/08 01:30:20;;;;;;;1.90;1.13;;;;;;;25.93;30.19;96205.63;5035983;28;20433;-38
2021/01/08 01:32:45;;;;;;;6.05;2.50;;;;;;;25.92;28.65;96197.84;5032483;28;20049;-41
2021/01/08 01:35:11;;;;;;;5.72;1.40;;;;;;;25.92;29.70;96197.84;5033975;28;20514;-37
2021/01/08 01:37:36;;;;;;;1.50;1.20;;;;;;;25.92;29.94;96192.59;5043509;28;20037;-42
2021/01/08 01:40:03;;;;;;;5.07;1.48;;;;;;;25.97;30.10;96201.03;5018851;28;20041;-42
2021/01/08 01:42:29;;;;;;;3.50;1.52;;;;;;;25.93;30.11;96203.00;5042819;28;20549;-40
2021/01/08 01:44:54;;;;;;;2.90;1.20;;;;;;;25.95;30.09;96208.19;5037377;28;20044;-41
2021/01/08 01:47:21;;;;;;;2.05;1.30;;;;;;;25.95;29.95;96208.19;5037281;28;20056;-43
2021/01/08 01:49:47;;;;;;;1.65;1.27;;;;;;;25.95;30.06;96213.41;5051921;28;20041;-43
2021/01/08 01:52:12;;;;;;;2.42;1.40;;;;;;;25.93;29.78;96210.88;5039448;28;20574;-40
2021/01/08 01:54:38;;;;;;;2.35;1.15;;;;;;;25.94;30.04;96211.75;5019753;28;20565;-38
2021/01/08 01:57:03;;;;;;;2.17;1.25;;;;;;;25.94;30.22;96217.00;5035342;28;20119;-43
2021/01/08 01:59:29;;;;;;;0.95;0.93;;;;;;;25.92;30.12;96217.09;5019501;28;20056;-43
2021/01/08 02:01:54;;;;;;;2.05;1.13;;;;;;;25.93;30.05;96210.06;5026098;28;20098;-40
2021/01/08 02:04:20;;;;;;;3.83;1.10;;;;;;;25.89;30.23;96214.66;5030632;28;20490;-40
2021/01/08 02:06:45;;;;;;;1.67;1.10;;;;;;;25.90;30.39;96213.69;5032971;28;20053;-42
2021/01/08 02:09:12;;;;;;;2.97;1.48;;;;;;;25.90;30.13;96218.94;5022880;28;20116;-40
2021/01/08 02:11:38;;;;;;;2.17;1.30;;;;;;;25.88;30.21;96220.84;5035113;28;20123;-41
2021/01/08 02:14:10;;;;;;;5.13;1.42;;;;;;;25.91;30.16;96222.44;5043404;28;20044;-41
2021/01/08 02:16:37;;;;;;;2.00;1.00;;;;;;;25.88;30.29;96218.22;5021511;28;20537;-40
2021/01/08 02:19:04;;;;;;;1.52;0.85;;;;;;;25.87;30.16;96221.78;5051703;28;20501;-41
2021/01/08 02:21:36;;;;;;;5.13;1.60;;;;;;;25.87;30.19;96220.94;5021627;28;20128;-40
2021/01/08 02:24:05;;;;;;;2.63;1.30;;;;;;;25.88;30.19;96222.63;5004967;28;20045;-43
2021/01/08 02:26:30;;;;;;;2.03;1.15;;;;;;;25.89;30.14;96222.53;5040486;28;20694;-43
2021/01/08 02:28:56;;;;;;;1.48;1.00;;;;;;;25.90;30.04;96226.00;5012145;28;20049;-43
2021/01/08 02:31:22;;;;;;;1.13;0.82;;;;;;;25.90;30.09;96228.63;5042449;28;21116;-42
2021/01/08 02:33:47;;;;;;;1.35;1.10;;;;;;;25.89;29.99;96225.16;5032232;28;20055;-42
2021/01/08 02:36:13;;;;;;;1.67;1.27;;;;;;;25.88;30.25;96220.00;5043086;28;20175;-39
2021/01/08 02:38:38;;;;;;;2.20;1.20;;;;;;;25.86;30.05;96221.88;5037852;28;20041;-39
2021/01/08 02:41:04;;;;;;;3.00;1.08;;;;;;;25.84;30.30;96216.72;5027274;28;20037;-43
2021/01/08 02:43:30;;;;;;;0.73;0.70;;;;;;;25.87;30.14;96218.31;5033238;28;20043;-43
2021/01/08 02:45:55;;;;;;;1.92;1.10;;;;;;;25.83;30.06;96215.88;5000917;28;20040;-40
2021/01/08 02:48:21;;;;;;;2.88;1.13;;;;;;;25.81;30.27;96212.50;5044921;28;20044;-43
2021/01/08 02:50:46;;;;;;;1.17;0.82;;;;;;;25.82;30.16;96214.19;5044183;28;20064;-44
2021/01/08 02:53:15;;;;;;;1.65;1.02;;;;;;;25.85;30.12;96209.69;5055305;28;20028;-40
2021/01/08 02:56:05;;;;;;;1.92;1.08;;;;;;;25.84;30.20;96216.72;5021252;28;20041;-37
2021/01/08 02:58:31;;;;;;;1.83;1.20;;;;;;;25.81;30.20;96212.50;5021762;28;20232;-43
2021/01/08 03:00:56;;;;;;;1.50;1.08;;;;;;;25.82;30.07;96218.63;5050576;28;20313;-40
2021/01/08 03:03:23;;;;;;;1.15;1.02;;;;;;;25.84;30.19;96211.47;5041654;28;20052;-43
2021/01/08 03:05:48;;;;;;;1.75;1.10;;;;;;;25.87;30.06;96216.53;5021144;28;20102;-40
2021/01/08 03:08:14;;;;;;;1.40;1.15;;;;;;;25.89;30.07;96203.31;5024470;28;20502;-44
2021/01/08 03:10:40;;;;;;;1.15;0.98;;;;;;;25.86;30.28;96208.75;5024861;28;20128;-40
2021/01/08 03:13:06;;;;;;;1.15;0.80;;;;;;;25.85;30.18;96212.31;5023291;28;20037;-39
2021/01/08 03:15:31;;;;;;;1.27;0.90;;;;;;;25.80;30.08;96205.59;5046593;28;20625;-40
2021/01/08 03:17:57;;;;;;;1.65;1.00;;;;;;;25.83;30.01;96210.63;5038103;28;20029;-41
2021/01/08 03:20:22;;;;;;;2.13;1.30;;;;;;;25.84;30.05;96214.09;5052074;28;20501;-39
2021/01/08 03:22:48;;;;;;;2.03;1.10;;;;;;;25.84;30.07;96195.72;5030414;28;20128;-49
2021/01/08 03:25:14;;;;;;;1.10;0.73;;;;;;;25.87;30.16;96199.94;5038966;28;20207;-40
2021/01/08 03:27:39;;;;;;;2.08;0.98;;;;;;;25.90;30.04;96194.50;5021746;28;20048;-39
2021/01/08 03:30:06;;;;;;;1.85;1.05;;;;;;;25.87;30.18;96199.94;5042081;28;20064;-41
2021/01/08 03:32:32;;;;;;;1.67;1.13;;;;;;;25.83;30.21;96197.50;5034584;28;20120;-41
2021/01/08 03:34:57;;;;;;;1.48;0.82;;;;;;;25.79;30.18;96197.78;5024641;28;20128;-41
2021/01/08 03:37:23;;;;;;;1.48;1.13;;;;;;;25.78;30.01;96193.50;5043595;28;20414;-40
2021/01/08 03:39:48;;;;;;;1.63;1.02;;;;;;;25.78;30.35;96190.88;5024253;28;20036;-42
2021/01/08 03:42:13;;;;;;;2.10;0.93;;;;;;;25.78;30.00;96202.19;5045037;28;20040;-44
2021/01/08 03:44:39;;;;;;;1.00;0.82;;;;;;;25.79;30.04;96187.28;5052422;28;20040;-43
2021/01/08 03:47:04;;;;;;;0.70;0.70;;;;;;;25.80;30.30;96195.09;5022573;28;20063;-41
2021/01/08 03:49:30;;;;;;;1.05;0.70;;;;;;;25.77;30.46;96197.88;5041585;28;20036;-43
2021/01/08 03:51:55;;;;;;;1.48;0.90;;;;;;;25.76;30.30;96192.72;5043502;28;20048;-43
2021/01/08 03:54:20;;;;;;;2.20;1.02;;;;;;;25.77;30.41;96205.75;5042533;28;20040;-37
2021/01/08 03:56:46;;;;;;;0.93;0.82;;;;;;;25.75;30.17;96199.78;5038473;28;20036;-37
2021/01/08 03:59:11;;;;;;;1.25;0.88;;;;;;;25.74;30.42;96190.19;5035226;28;20040;-35
2021/01/08 04:01:37;;;;;;;1.92;1.02;;;;;;;25.76;30.30;96198.84;5019774;28;20098;-43
2021/01/08 04:04:02;;;;;;;1.38;0.90;;;;;;;25.73;30.30;96192.94;5036291;28;20036;-40
2021/01/08 04:06:28;;;;;;;1.23;0.88;;;;;;;25.74;30.42;96190.19;5039078;28;20072;-41
2021/01/08 04:08:55;;;;;;;1.02;0.93;;;;;;;25.78;30.18;96186.44;5038020;28;20040;-41
2021/01/08 04:11:20;;;;;;;1.15;0.80;;;;;;;25.76;30.06;96188.34;5045395;28;20045;-42
2021/01/08 04:13:46;;;;;;;1.05;0.82;;;;;;;25.76;30.15;96182.22;5042340;28;20033;-40
2021/01/08 04:16:11;;;;;;;1.25;0.90;;;;;;;25.75;30.31;96184.03;5023655;28;20041;-41
2021/01/08 04:18:38;;;;;;;1.10;0.88;;;;;;;25.76;30.00;96187.47;5046043;28;20044;-38
2021/01/08 04:21:03;;;;;;;1.45;0.88;;;;;;;25.77;30.06;96179.50;5036448;28;20029;-43
2021/01/08 04:23:29;;;;;;;0.68;0.68;;;;;;;25.77;30.20;96174.28;5037746;28;20036;-41
2021/01/08 04:25:55;;;;;;;1.73;0.90;;;;;;;25.78;30.09;96170.69;5040502;28;20065;-40
2021/01/08 04:28:20;;;;;;;1.05;0.80;;;;;;;25.79;30.11;96182.91;5034797;28;20044;-44
2021/01/08 04:30:45;;;;;;;1.58;0.90;;;;;;;25.80;29.98;96179.34;5041503;28;20033;-43
2021/01/08 04:33:12;;;;;;;0.60;0.60;;;;;;;25.85;29.96;96183.44;5038070;28;20041;-35
2021/01/08 04:35:38;;;;;;;0.80;0.80;;;;;;;25.85;29.99;96186.06;5041552;28;20037;-40
2021/01/08 04:38:04;;;;;;;1.67;0.93;;;;;;;25.87;29.90;96185.03;5039918;28;20036;-39
2021/01/08 04:40:30;;;;;;;1.40;0.93;;;;;;;25.81;30.26;96181.00;5038682;28;20041;-43
2021/01/08 04:42:55;;;;;;;0.70;0.63;;;;;;;25.79;30.11;96175.03;5042636;28;20182;-40
2021/01/08 04:45:20;;;;;;;0.75;0.70;;;;;;;25.76;30.00;96169.97;5020414;28;20048;-42
2021/01/08 04:47:46;;;;;;;1.27;0.75;;;;;;;25.78;30.05;96181.19;5038127;28;20045;-37
2021/01/08 04:50:12;;;;;;;0.80;0.70;;;;;;;25.76;30.23;96167.34;5040611;28;20032;-41
2021/01/08 04:52:37;;;;;;;1.50;0.98;;;;;;;25.78;30.26;96165.44;5026474;28;20044;-36
2021/01/08 04:55:04;;;;;;;1.33;0.90;;;;;;;25.82;29.95;96172.19;5019818;28;20033;-43
2021/01/08 04:57:31;;;;;;;1.10;0.77;;;;;;;25.78;30.08;96173.31;5020613;28;20494;-40
2021/01/08 04:59:57;;;;;;;0.70;0.60;;;;;;;25.81;30.06;96169.66;5012967;28;20040;-40
2021/01/08 05:02:22;;;;;;;0.93;0.60;;;;;;;25.82;30.00;96171.38;5046218;28;20045;-43
2021/01/08 05:04:48;;;;;;;0.98;0.70;;;;;;;25.86;29.77;96167.63;5017734;28;20551;-39
2021/01/08 05:07:13;;;;;;;0.80;0.80;;;;;;;25.84;29.90;96169.47;5032247;28;20091;-42
2021/01/08 05:09:39;;;;;;;0.98;0.90;;;;;;;25.85;29.93;96167.69;5036032;28;20405;-42
2021/01/08 05:12:06;;;;;;;0.88;0.70;;;;;;;25.86;29.86;96167.63;5035455;28;20124;-41
2021/01/08 05:14:31;;;;;;;1.00;0.90;;;;;;;25.85;30.02;96170.31;5035492;28;20045;-40
2021/01/08 05:16:57;;;;;;;0.68;0.68;;;;;;;25.84;29.96;96166.84;5041948;28;20033;-45
2021/01/08 05:19:24;;;;;;;1.08;0.85;;;;;;;25.86;29.97;96169.38;5035908;28;20061;-40
2021/01/08 05:21:50;;;;;;;0.95;0.77;;;;;;;25.89;29.82;96167.41;5037154;28;20136;-39
2021/01/08 05:24:16;;;;;;;0.88;0.60;;;;;;;25.89;29.71;96169.19;5041216;28;20040;-44
2021/01/08 05:26:41;;;;;;;1.25;0.80;;;;;;;25.91;29.89;96165.53;5046319;28;20068;-42
2021/01/08 05:29:07;;;;;;;1.25;0.90;;;;;;;25.92;29.82;96167.22;5041010;28;20048;-42
2021/01/08 05:31:33;;;;;;;0.73;0.50;;;;;;;25.94;29.66;96175.81;5035172;28;20667;-42
2021/01/08 05:33:59;;;;;;;1.02;0.55;;;;;;;25.91;29.79;96170.78;5021969;28;20125;-39
2021/01/08 05:36:25;;;;;;;0.65;0.50;;;;;;;25.92;29.78;96171.59;5047687;28;20119;-41
2021/01/08 05:38:57;;;;;;;0.80;0.70;;;;;;;25.91;29.82;96180.44;5046732;28;20033;-40
2021/01/08 05:41:23;;;;;;;0.85;0.65;;;;;;;25.90;29.97;96176.13;5042723;28;20045;-40
2021/01/08 05:43:49;;;;;;;0.85;0.70;;;;;;;25.93;29.86;96178.56;5044193;28;20133;-39
2021/01/08 05:46:15;;;;;;;0.55;0.55;;;;;;;25.90;29.76;96179.56;5035343;28;20041;-43
2021/01/08 05:48:51;;;;;;;1.13;0.90;;;;;;;25.92;29.74;96182.09;5042985;28;20041;-40
2021/01/08 05:51:20;;;;;;;0.70;0.60;;;;;;;25.94;29.59;96180.25;5037800;28;20036;-37
2021/01/08 05:53:47;;;;;;;0.63;0.60;;;;;;;25.93;29.75;96186.44;5049134;28;20048;-37
2021/01/08 05:56:16;;;;;;;2.00;0.80;;;;;;;25.93;29.97;96194.31;5040971;28;20037;-41
2021/01/08 05:58:42;;;;;;;0.57;0.57;;;;;;;25.92;29.88;96192.59;5037937;28;20041;-41
2021/01/08 06:01:08;;;;;;;1.02;0.77;;;;;;;25.91;29.81;96191.78;5032038;28;20049;-38
2021/01/08 06:03:34;;;;;;;1.33;0.95;;;;;;;25.91;29.87;96196.19;5041925;28;20409;-40
2021/01/08 06:06:01;;;;;;;0.80;0.68;;;;;;;25.92;29.79;96189.97;5014270;28;20066;-42
2021/01/08 06:08:29;;;;;;;0.52;0.52;;;;;;;25.94;29.87;96190.75;5030550;28;20048;-42
2021/01/08 06:10:55;;;;;;;0.70;0.70;;;;;;;25.92;29.93;96193.47;5044005;28;20434;-43
2021/01/08 06:13:23;;;;;;;0.70;0.70;;;;;;;25.91;29.90;96190.94;5046101;28;20040;-41
2021/01/08 06:15:50;;;;;;;0.80;0.75;;;;;;;25.93;30.01;96194.31;5020081;28;20179;-40
2021/01/08 06:18:16;;;;;;;0.85;0.70;;;;;;;25.92;29.83;96195.22;5041388;28;20111;-41
2021/01/08 06:20:41;;;;;;;1.17;0.77;;;;;;;25.93;29.82;96191.69;5031422;28;20524;-40
2021/01/08 06:23:07;;;;;;;1.95;0.68;;;;;;;25.92;29.97;96195.22;5044144;28;20041;-41
2021/01/08 06:25:32;;;;;;;0.68;0.60;;;;;;;25.95;29.90;96195.91;5043607;28;20516;-41
2021/01/08 06:27:58;;;;;;;0.85;0.70;;;;;;;25.93;29.93;96197.75;5037372;28;20037;-35
2021/01/08 06:30:26;;;;;;;0.73;0.60;;;;;;;25.96;29.89;96199.34;4996803;28;20148;-40
2021/01/08 06:33:00;;;;;;;0.90;0.68;;;;;;;25.95;29.85;96197.66;5025515;28;20036;-40
2021/01/08 06:35:27;;;;;;;0.65;0.65;;;;;;;25.96;29.90;96204.59;5048636;28;20082;-42
2021/01/08 06:37:53;;;;;;;1.05;0.68;;;;;;;25.94;29.99;96196.00;5042102;28;20191;-42
2021/01/08 06:40:18;;;;;;;1.58;0.70;;;;;;;25.95;30.05;96197.66;5053638;28;20156;-35
2021/01/08 06:42:45;;;;;;;2.00;0.68;;;;;;;25.96;29.97;96202.84;5024345;28;20498;-41
2021/01/08 06:45:17;;;;;;;0.80;0.73;;;;;;;25.96;29.95;96199.34;5041469;28;20106;-41
2021/01/08 06:47:44;;;;;;;0.82;0.77;;;;;;;25.98;29.77;96208.00;5042668;28;20073;-40
2021/01/08 06:50:15;;;;;;;2.35;0.57;;;;;;;26.00;29.79;96211.34;5046788;28;20499;-40
2021/01/08 06:52:45;;;;;;;0.73;0.50;;;;;;;26.00;29.79;96206.09;5049954;28;20184;-41
2021/01/08 06:55:15;;;;;;;0.47;0.47;;;;;;;25.99;29.82;96209.66;5028162;28;20036;-43
2021/01/08 06:57:48;;;;;;;1.40;0.77;;;;;;;26.00;29.74;96203.47;5042602;28;20025;-40
2021/01/08 07:00:14;;;;;;;2.05;0.70;;;;;;;26.00;29.72;96211.34;5033655;28;20044;-37
2021/01/08 07:02:39;;;;;;;1.30;0.65;;;;;;;26.02;29.85;96206.00;5055039;28;20033;-34
2021/01/08 07:05:05;;;;;;;0.57;0.57;;;;;;;26.02;29.83;96211.25;5018060;28;20449;-38
2021/01/08 07:07:30;;;;;;;0.98;0.68;;;;;;;26.02;29.91;96217.34;5041812;28;20032;-42
2021/01/08 07:09:56;;;;;;;0.68;0.68;;;;;;;26.03;29.83;96216.41;5017775;28;20699;-40
2021/01/08 07:12:22;;;;;;;1.08;0.60;;;;;;;26.05;29.72;96222.41;5038028;28;20048;-42
2021/01/08 07:14:48;;;;;;;0.95;0.80;;;;;;;26.07;29.83;96222.31;5040359;28;20033;-43
2021/01/08 07:17:13;;;;;;;1.00;0.65;;;;;;;26.06;29.90;96223.25;5016832;28;20528;-36
2021/01/08 07:19:45;;;;;;;0.80;0.55;;;;;;;26.05;29.77;96235.53;5040259;28;20044;-39
2021/01/08 07:22:17;;;;;;;0.80;0.65;;;;;;;26.06;29.76;96224.09;5049577;28;20068;-42
2021/01/08 07:24:43;;;;;;;2.17;0.70;;;;;;;26.02;29.91;96230.47;5032387;28;20044;-42
2021/01/08 07:27:19;;;;;;;0.70;0.57;;;;;;;26.01;29.97;96228.78;5043698;28;20102;-40
2021/01/08 07:29:54;;;;;;;2.53;0.80;;;;;;;25.98;29.94;96234.25;5039521;28;20655;-43
2021/01/08 07:32:31;;;;;;;1.30;0.80;;;;;;;25.95;29.71;96242.31;5042533;28;20095;-41
2021/01/08 07:34:56;;;;;;;7.25;1.60;;;;;;;25.87;28.51;96229.66;5037798;28;22814;-41
2021/01/08 07:37:21;;;;;;;5.00;1.52;;;;;;;25.85;28.73;96241.19;5034448;28;20038;-40
2021/01/08 07:39:47;;;;;;;2.83;1.10;;;;;;;25.86;29.48;96251.59;5039193;28;20033;-40
2021/01/08 07:42:33;;;;;;;3.70;1.60;;;;;;;25.80;29.38;96239.69;5024235;28;20132;-39
2021/01/08 07:44:58;;;;;;;1.30;1.13;;;;;;;25.80;29.14;96247.56;5037800;28;20044;-43
2021/01/08 07:47:24;;;;;;;3.30;2.30;;;;;;;25.68;25.04;96248.31;5032002;28;20071;-41
2021/01/08 07:50:13;;;;;;;2.78;2.20;;;;;;;25.57;24.51;96254.22;5015258;28;20809;-39
2021/01/08 07:52:42;;;;;;;4.07;2.00;;;;;;;25.41;25.39;96251.66;5034866;28;20753;-41
2021/01/08 07:55:09;;;;;;;2.78;1.67;;;;;;;25.28;26.07;96254.19;5014969;28;20047;-38
2021/01/08 07:58:00;;;;;;;2.35;2.08;;;;;;;25.17;25.66;96249.56;5032165;28;20116;-40
2021/01/08 08:00:26;;;;;;;2.55;1.83;;;;;;;24.96;26.19;96252.50;5033455;28;20066;-42
2021/01/08 08:02:54;;;;;;;4.80;2.03;;;;;;;24.86;26.59;96260.06;5014360;28;20032;-42
2021/01/08 08:05:20;;;;;;;4.25;3.08;;;;;;;24.72;26.42;96259.97;5035489;28;20051;-40
2021/01/08 08:07:45;;;;;;;3.92;2.67;;;;;;;24.66;26.53;96263.78;5015946;28;20075;-41
2021/01/08 08:10:11;;;;;;;3.00;2.20;;;;;;;24.55;26.50;96260.94;4989650;28;20057;-39
2021/01/08 08:12:36;;;;;;;3.67;2.20;;;;;;;24.49;26.38;96265.56;5032071;28;20048;-40
2021/01/08 08:15:04;;;;;;;2.25;1.85;;;;;;;24.42;26.66;96266.88;5015172;28;20068;-42
2021/01/08 08:17:29;;;;;;;2.20;2.00;;;;;;;24.35;26.67;96273.38;5032188;28;20061;-42
2021/01/08 08:19:56;;;;;;;3.45;2.25;;;;;;;24.27;26.85;96285.13;5016283;28;20076;-40
2021/01/08 08:22:37;;;;;;;3.92;2.22;;;;;;;24.30;27.22;96280.63;5032199;28;20061;-42
2021/01/08 08:25:29;;;;;;;1.55;1.38;;;;;;;24.44;29.62;96290.38;5031995;28;20405;-40
2021/01/08 08:27:58;;;;;;;2.75;1.35;;;;;;;24.64;29.64;96289.25;5035896;28;20518;-40
2021/01/08 08:30:25;;;;;;;1.48;1.30;;;;;;;24.84;29.87;96279.44;5031401;28;20044;-41
2021/01/08 08:32:52;;;;;;;1.63;1.10;;;;;;;25.00;29.74;96288.09;5007474;28;20446;-40
2021/01/08 08:35:17;;;;;;;1.45;1.30;;;;;;;25.14;29.79;96287.28;5032167;28;20541;-41
2021/01/08 08:37:49;;;;;;;3.08;1.20;;;;;;;25.25;29.82;96289.28;5035127;28;20148;-36
2021/01/08 08:40:20;;;;;;;2.78;1.20;;;;;;;25.35;29.82;96300.06;5033908;28;20494;-44
2021/01/08 08:42:55;;;;;;;1.65;1.08;;;;;;;25.44;29.74;96299.53;5033190;28;20071;-38
2021/01/08 08:45:22;;;;;;;1.88;1.00;;;;;;;25.51;29.83;96305.25;5016252;28;20743;-39
2021/01/08 08:47:49;;;;;;;1.25;1.05;;;;;;;25.54;29.93;96305.06;5033368;28;20128;-41
2021/01/08 08:50:16;;;;;;;1.48;1.00;;;;;;;25.59;29.62;96307.44;5032425;28;20044;-42
2021/01/08 08:52:42;;;;;;;2.30;1.00;;;;;;;25.65;29.96;96306.22;5018100;28;20094;-36
2021/01/08 08:55:08;;;;;;;2.70;0.90;;;;;;;25.67;29.69;96307.00;5035039;28;20041;-43
2021/01/08 08:57:33;;;;;;;2.08;1.27;;;;;;;25.69;29.79;96312.97;5034075;28;20033;-39
2021/01/08 08:59:59;;;;;;;1.17;1.02;;;;;;;25.74;29.87;96310.91;5034355;28;20041;-41
2021/01/08 09:02:25;;;;;;;1.92;0.90;;;;;;;25.76;29.90;96302.97;5032290;28;20040;-35
2021/01/08 09:04:55;;;;;;;1.80;1.15;;;;;;;25.80;29.95;96310.56;5031683;28;20036;-42
2021/01/08 09:07:40;;;;;;;2.50;1.30;;;;;;;25.89;29.73;96308.31;5031848;28;20041;-36
2021/01/08 09:10:16;;;;;;;1.50;1.40;;;;;;;25.90;29.84;96310.00;5020553;28;20041;-43
2021/01/08 09:13:00;;;;;;;1.80;0.90;;;;;;;25.93;29.85;96315.06;5031188;28;20045;-43
2021/01/08 09:15:41;;;;;;;2.50;1.00;;;;;;;25.94;29.83;96316.75;5030737;28;20065;-42
2021/01/08 09:18:30;;;;;;;6.28;1.13;;;;;;;25.89;28.70;96314.41;5035651;28;20027;-41
2021/01/08 09:21:06;;;;;;;13.48;1.42;;;;;;;25.84;28.59;96316.47;5020869;28;20055;-39
2021/01/08 09:23:34;;;;;;;3.80;0.95;;;;;;;25.82;30.13;96321.81;5027630;28;20033;-42
2021/01/08 09:26:04;;;;;;;3.53;0.98;;;;;;;25.88;30.13;96327.59;5011237;28;20048;-38
2021/01/08 09:28:38;;;;;;;4.10;1.30;;;;;;;25.92;29.93;96323.88;5032831;28;20087;-43
2021/01/08 09:31:04;;;;;;;9.55;2.05;;;;;;;25.96;30.08;96325.38;5022190;28;20037;-42
2021/01/08 09:33:29;;;;;;;7.60;2.22;;;;;;;25.96;29.88;96325.38;5032656;28;20044;-40
2021/01/08 09:35:54;;;;;;;8.38;2.35;;;;;;;25.95;29.97;96321.06;5030984;28;20048;-38
2021/01/08 09:38:21;;;;;;;6.45;2.15;;;;;;;26.00;29.76;96332.13;5032938;28;20055;-42
2021/01/08 09:40:47;;;;;;;3.88;1.80;;;;;;;25.99;30.27;96325.19;5001213;28;20398;-37
2021/01/08 09:43:16;;;;;;;8.73;2.30;;;;;;;26.01;30.19;96333.78;5036802;28;20550;-41
2021/01/08 09:45:42;;;;;;;16.77;2.53;;;;;;;26.02;30.13;96330.25;5039137;28;20033;-38
2021/01/08 09:48:22;;;;;;;6.75;1.90;;;;;;;26.06;30.03;96323.88;5044285;28;20498;-40
2021/01/08 09:51:05;;;;;;;13.77;2.60;;;;;;;26.06;31.20;96329.13;5027660;28;20041;-39
2021/01/08 09:53:32;;;;;;;8.05;1.67;;;;;;;25.99;29.00;96330.44;5041318;28;20059;-42
2021/01/08 09:56:13;;;;;;;10.43;1.98;;;;;;;25.89;27.98;96330.16;5042776;28;20091;-43
2021/01/08 09:58:39;;;;;;;10.75;2.33;;;;;;;25.89;29.19;96329.31;5036119;28;20134;-40
2021/01/08 10:01:04;;;;;;;19.13;2.88;;;;;;;25.88;29.84;96328.47;5039537;28;20041;-42
2021/01/08 10:03:30;;;;;;;6.85;2.25;;;;;;;25.88;29.14;96330.22;5043699;28;20438;-46
2021/01/08 10:06:09;;;;;;;16.05;2.97;;;;;;;25.91;30.45;96337.94;5032794;28;20115;-44
2021/01/08 10:08:35;;;;;;;12.82;2.53;;;;;;;25.98;29.90;96330.53;5046892;28;20033;-42
2021/01/08 10:11:00;;;;;;;11.27;2.63;;;;;;;26.06;29.64;96337.00;5036214;28;20041;-39
2021/01/08 10:13:26;;;;;;;7.32;2.25;;;;;;;26.08;30.04;96329.88;5033399;28;20071;-37
2021/01/08 10:15:53;;;;;;;9.60;2.80;;;;;;;26.14;30.25;96338.31;5030182;28;20671;-45
2021/01/08 10:18:26;;;;;;;10.05;2.63;;;;;;;26.12;29.97;96332.31;5040859;28;20409;-42
2021/01/08 10:21:22;;;;;;;8.13;2.67;;;;;;;26.14;30.06;96338.31;5045662;28;20494;-44
2021/01/08 10:23:48;;;;;;;14.40;2.80;;;;;;;26.10;29.97;96333.22;5035951;28;20465;-43
2021/01/08 10:26:17;;;;;;;8.13;2.35;;;;;;;26.15;29.88;96339.97;5042813;28;20234;-44
2021/01/08 10:28:46;;;;;;;14.60;3.10;;;;;;;26.18;29.87;96334.53;5038624;28;20144;-41
2021/01/08 10:31:12;;;;;;;6.75;2.40;;;;;;;26.22;30.09;96336.03;5038881;28;20037;-42
2021/01/08 10:33:38;;;;;;;8.35;2.50;;;;;;;26.23;29.87;96333.31;5030882;28;20675;-43
2021/01/08 10:36:04;;;;;;;6.45;2.22;;;;;;;26.22;30.07;96322.91;5036986;28;20564;-41
2021/01/08 10:38:30;;;;;;;7.07;2.50;;;;;;;26.22;29.98;96325.53;5029822;28;20051;-46
2021/01/08 10:40:55;;;;;;;6.63;2.00;;;;;;;26.21;29.96;96334.38;5030596;28;20425;-42
2021/01/08 10:43:21;;;;;;;10.02;2.20;;;;;;;26.22;30.08;96331.66;5028369;28;20537;-42
2021/01/08 10:45:46;;;;;;;8.80;2.45;;;;;;;26.27;29.90;96327.94;5044142;28;20048;-43
2021/01/08 10:48:12;;;;;;;8.93;2.50;;;;;;;26.30;29.94;96323.31;5020253;28;20119;-42
2021/01/08 10:50:38;;;;;;;7.20;2.47;;;;;;;26.34;29.88;96322.19;5047005;28;20059;-43
2021/01/08 10:53:03;;;;;;;9.80;2.70;;;;;;;26.31;29.94;96319.75;5028362;28;20033;-42
2021/01/08 10:55:28;;;;;;;9.38;2.58;;;;;;;26.32;29.89;96320.59;5041940;28;20098;-42
2021/01/08 10:57:55;;;;;;;8.27;2.00;;;;;;;26.30;29.70;96318.06;5045553;28;20036;-43
2021/01/08 11:00:22;;;;;;;7.80;2.25;;;;;;;26.31;29.88;96318.91;5048329;28;20043;-44
2021/01/08 11:02:47;;;;;;;7.20;2.40;;;;;;;26.32;29.77;96310.09;5045399;28;20051;-43
2021/01/08 11:05:15;;;;;;;6.43;2.28;;;;;;;26.31;29.87;96311.84;5040884;28;20410;-45
2021/01/08 11:07:40;;;;;;;6.15;2.20;;;;;;;26.30;29.96;96315.44;5046712;28;20075;-41
2021/01/08 11:10:07;;;;;;;7.35;2.20;;;;;;;26.31;29.87;96311.84;5043868;28;20147;-43
2021/01/08 11:12:33;;;;;;;5.22;2.13;;;;;;;26.35;29.81;96315.13;5043894;28;20406;-39
2021/01/08 11:14:59;;;;;;;4.70;2.42;;;;;;;26.35;29.73;96308.09;5045188;28;20032;-45
2021/01/08 11:17:25;;;;;;;7.20;2.30;;;;;;;26.35;29.83;96305.47;5048074;28;20048;-45
2021/01/08 11:19:51;;;;;;;4.05;1.88;;;;;;;26.35;29.88;96304.63;5045128;28;20438;-38
2021/01/08 11:22:16;;;;;;;5.00;2.13;;;;;;;26.38;29.93;96308.88;5043392;28;20037;-45
2021/01/08 11:24:42;;;;;;;3.95;1.70;;;;;;;26.39;29.91;96310.53;5046291;28;20186;-41
2021/01/08 11:27:07;;;;;;;5.55;2.00;;;;;;;26.35;29.83;96310.72;5046125;28;20049;-40
2021/01/08 11:29:33;;;;;;;4.50;1.90;;;;;;;26.33;29.96;96307.38;5038938;28;20041;-45
2021/01/08 11:31:59;;;;;;;3.80;1.70;;;;;;;26.26;30.04;96285.03;5016540;28;20041;-41
2021/01/08 11:34:25;;;;;;;6.20;2.10;;;;;;;26.28;28.71;96298.09;5033819;28;20037;-41